Abisko, Sweden

9:58 PM CEST on September 18, 2014 (GMT +0200)
Bardu | Change Station
CLOSE
Current Station
Personal Weather Station
Location: Bardu, TROMS
Elevation: 1663 ft
Nearby Weather Stations

Elev 1663 ft 68.66 °N, 18.88 °E | Updated 14 minutes ago

Mostly Cloudy
Mostly Cloudy
35.7 °F
Feels Like 36 °F
N
1.0
Wind Variable Wind from West
Gusts 2.0 mph

Today
High -- | Low -- °F
--% Chance of Precip.
Yesterday
High -- | Low -- °F
Precip. -- in
6:10 AM 7:05 PM
Waning Crescent, 25% visible
Pressure 30.18 in
Visibility 6.2 miles
Clouds Few 3000 ft
Scattered Clouds 5000 ft
Mostly Cloudy 15000 ft
Windchill 36 °F
Dew Point 32 °F
Humidity 88%
Rainfall 0.00 in
Snow Depth Not available.
UV 0 out of 12
Pollen Not available.
Air Quality Not available.
Flu Activity Not available.
METAR ENDU 181950Z 00000KT 9999 FEW030 SCT050 BKN150 02/M00 Q1022

More Conditions Fewer Conditions

Pressure 30.18 in
Visibility 6.2 miles
Clouds Few 3000 ft
Scattered Clouds 5000 ft
Mostly Cloudy 15000 ft
Windchill 36 °F
Dew Point 32 °F
Humidity 88%
Rainfall 0.00 in
Snow Depth Not available.
UV 0 out of 12
Pollen Not available.
Air Quality Not available.
Flu Activity Not available.
METAR ENDU 181950Z 00000KT 9999 FEW030 SCT050 BKN150 02/M00 Q1022

More Conditions Fewer Conditions

10-Day Weather Forecast

Almanac

Astronomy

Sep. 18, 2014 Rise Set
Actual Time 6:10 AM CEST 7:05 PM CEST
Civil Twilight 5:12 AM CEST 8:02 PM CEST
Nautical Twilight 3:56 AM CEST 9:17 PM CEST
Astronomical Twilight 2:08 AM CEST 11:00 PM CEST
Moon 11:50 PM CEST 5:41 PM CEST
Length of Visible Light 14h 50m
Length of Day
12h 54m
Tomorrow will be 7m 53s shorter.
Waning Crescent, 25% of the Moon is Illuminated
Today
Waning Crescent
Sep 24
New
Oct 1
First Quarter
Oct 8
Full
Oct 15
Last Quarter

Today's Extremes

Country Highs Country Lows

Community

WunderPhotos

Upload Photos

1,754,421 photos uploaded!

WunderBlogs® & News

By Dr. Jeff Masters
Director of Meteorology, Weather Underground
By Kari Strenfel
Meteorologist, Weather Underground
By Christopher C. Burt
Weather Historian, Weather Underground
September 18, 2014
September 18, 2014
September 18, 2014

Nearby

Snow Depth

Not available.

Earthquake Activity

City Distance Mag. Time & Date
No recent earthquake activity has been reported nearby.
Minimum magnitude displayed is 2.5.

Coastal Water Temperatures

Place Temperature
No Stations Reporting

Nearby Weather Stations